Time;durP1;ratioP1;P1;durP2;ratioP2;P2;SDS_P1;SDS_P2;PMS_P1;PMS_P2;Temp;Humidity;BMP_temperature;BMP_pressure;BME280_temperature;BME280_humidity;BME280_pressure;Samples;Min_cycle;Max_cycle;Signal;HPM_P1;HPM_P2
2022/03/13 00:00:51;;;;;;;15.70;10.45;;;13.00;53.70;;;;;;5044360;28;20029;-70
2022/03/13 00:03:19;;;;;;;16.33;10.23;;;13.00;53.60;;;;;;5035386;28;20120;-70
2022/03/13 00:05:46;;;;;;;14.10;9.48;;;12.90;53.70;;;;;;5035258;28;20037;-70
2022/03/13 00:08:27;;;;;;;14.40;9.55;;;13.00;53.70;;;;;;5039131;28;20052;-70
2022/03/13 00:11:08;;;;;;;15.20;9.20;;;12.90;53.70;;;;;;5037530;28;20038;-70
2022/03/13 00:13:36;;;;;;;15.75;10.43;;;12.90;53.80;;;;;;5049147;28;20060;-70
2022/03/13 00:16:10;;;;;;;14.32;9.50;;;12.90;53.90;;;;;;5049918;28;20036;-70
2022/03/13 00:18:41;;;;;;;14.15;10.05;;;12.90;53.80;;;;;;5036022;28;21743;-70
2022/03/13 00:21:09;;;;;;;14.82;10.35;;;12.90;53.90;;;;;;5044588;28;20334;-70
2022/03/13 00:23:35;;;;;;;14.68;9.70;;;12.80;53.80;;;;;;5034555;28;20035;-70
2022/03/13 00:26:04;;;;;;;15.68;9.57;;;12.80;53.80;;;;;;5036984;28;20033;-70
2022/03/13 00:28:30;;;;;;;14.20;9.32;;;12.80;53.80;;;;;;5040811;28;20029;-70
2022/03/13 00:31:01;;;;;;;14.27;9.88;;;12.80;53.70;;;;;;5034731;28;20045;-70
2022/03/13 00:33:27;;;;;;;14.85;9.13;;;12.80;53.70;;;;;;5028605;28;20099;-70
2022/03/13 00:35:52;;;;;;;17.17;9.50;;;12.80;53.70;;;;;;5035725;28;20021;-70
2022/03/13 00:38:22;;;;;;;16.23;9.90;;;12.80;53.70;;;;;;5050082;28;20069;-70
2022/03/13 00:40:51;;;;;;;15.20;9.45;;;12.70;53.70;;;;;;5037337;28;20125;-70
2022/03/13 00:43:19;;;;;;;14.23;8.95;;;12.70;53.70;;;;;;5037645;28;20729;-70
2022/03/13 00:45:44;;;;;;;15.55;9.13;;;12.70;53.70;;;;;;5039599;28;20033;-70
2022/03/13 00:48:10;;;;;;;16.38;10.18;;;12.70;53.70;;;;;;5049658;28;20035;-70
2022/03/13 00:50:36;;;;;;;15.55;8.90;;;12.70;53.70;;;;;;5051873;28;20446;-70
2022/03/13 00:53:02;;;;;;;14.65;9.05;;;12.70;53.80;;;;;;5046013;28;20029;-70
2022/03/13 00:55:28;;;;;;;15.45;9.90;;;12.70;53.80;;;;;;5043292;28;20035;-70
2022/03/13 00:57:54;;;;;;;13.90;8.98;;;12.70;53.80;;;;;;5050375;28;20442;-70
2022/03/13 01:00:19;;;;;;;13.70;8.93;;;12.60;53.90;;;;;;5047107;28;20025;-70
2022/03/13 01:02:45;;;;;;;16.00;10.30;;;12.70;53.90;;;;;;5027762;28;20082;-70
2022/03/13 01:05:11;;;;;;;13.82;9.05;;;12.70;54.00;;;;;;5047027;28;20085;-70
2022/03/13 01:07:38;;;;;;;13.60;9.10;;;12.60;54.00;;;;;;5044457;28;20410;-70
2022/03/13 01:10:06;;;;;;;15.73;9.20;;;12.70;54.20;;;;;;5034246;28;20036;-70
2022/03/13 01:12:32;;;;;;;13.93;8.55;;;12.60;54.20;;;;;;5020323;28;20029;-70
2022/03/13 01:14:57;;;;;;;15.98;9.70;;;12.60;54.30;;;;;;5048160;28;20017;-70
2022/03/13 01:17:25;;;;;;;14.70;9.85;;;12.60;54.40;;;;;;5045736;28;20029;-70
2022/03/13 01:19:51;;;;;;;14.15;9.32;;;12.60;54.50;;;;;;5040678;28;20394;-70
2022/03/13 01:22:17;;;;;;;14.73;9.40;;;12.60;54.40;;;;;;5047011;28;20091;-70
2022/03/13 01:24:46;;;;;;;14.98;9.68;;;12.60;54.40;;;;;;5034678;28;20091;-70
2022/03/13 01:27:14;;;;;;;15.02;9.48;;;12.60;54.40;;;;;;5036923;28;20025;-70
2022/03/13 01:29:40;;;;;;;14.75;9.80;;;12.60;54.20;;;;;;5034602;28;20406;-70
2022/03/13 01:32:09;;;;;;;16.70;10.13;;;12.60;54.20;;;;;;5042840;28;20040;-70
2022/03/13 01:34:35;;;;;;;13.77;9.60;;;12.60;54.10;;;;;;5039387;28;20091;-70
2022/03/13 01:37:06;;;;;;;16.30;10.93;;;12.60;54.00;;;;;;5034214;28;20025;-70
2022/03/13 01:39:31;;;;;;;16.75;10.68;;;12.60;53.90;;;;;;5043835;28;20499;-70
2022/03/13 01:41:57;;;;;;;17.15;10.90;;;12.50;53.80;;;;;;5033924;28;20033;-70
2022/03/13 01:44:22;;;;;;;17.10;11.48;;;12.60;53.80;;;;;;5044637;28;20031;-70
2022/03/13 01:46:48;;;;;;;16.92;10.90;;;12.60;53.90;;;;;;5052374;28;20374;-70
2022/03/13 01:49:16;;;;;;;18.02;11.82;;;12.60;53.90;;;;;;5052280;28;20436;-69
2022/03/13 01:51:42;;;;;;;16.58;10.50;;;12.50;53.90;;;;;;5041855;28;20026;-71
2022/03/13 01:54:10;;;;;;;18.63;11.70;;;12.50;53.90;;;;;;5040653;28;20032;-70
2022/03/13 01:56:36;;;;;;;18.55;12.20;;;12.50;54.00;;;;;;5047051;28;20035;-69
2022/03/13 01:59:03;;;;;;;16.80;11.90;;;12.50;54.00;;;;;;5037396;28;20029;-70
2022/03/13 02:01:29;;;;;;;16.67;11.63;;;12.50;54.10;;;;;;5036338;28;20024;-70
2022/03/13 02:03:55;;;;;;;20.40;13.00;;;12.40;54.10;;;;;;5042524;28;20434;-70
2022/03/13 02:06:26;;;;;;;17.90;11.70;;;12.40;54.20;;;;;;5038736;28;20032;-70
2022/03/13 02:08:54;;;;;;;20.02;12.70;;;12.40;54.30;;;;;;5038641;28;20037;-70
2022/03/13 02:11:24;;;;;;;18.35;12.68;;;12.30;54.30;;;;;;5035653;28;20040;-70
2022/03/13 02:13:52;;;;;;;20.17;13.55;;;12.30;54.40;;;;;;5043056;28;20032;-70
2022/03/13 02:16:20;;;;;;;19.52;13.52;;;12.20;54.40;;;;;;5033594;28;20100;-70
2022/03/13 02:18:53;;;;;;;17.15;12.15;;;12.20;54.40;;;;;;5041477;28;20055;-70
2022/03/13 02:21:24;;;;;;;21.65;12.57;;;12.20;54.50;;;;;;5040330;28;20140;-70
2022/03/13 02:23:56;;;;;;;23.15;12.93;;;12.20;54.60;;;;;;5039021;28;20029;-70
2022/03/13 02:26:21;;;;;;;21.63;14.48;;;12.10;54.60;;;;;;5039350;28;20026;-70
2022/03/13 02:28:52;;;;;;;20.08;14.07;;;12.10;54.70;;;;;;5040389;28;20086;-70
2022/03/13 02:31:27;;;;;;;16.75;11.80;;;12.10;54.70;;;;;;5039814;28;20053;-70
2022/03/13 02:33:54;;;;;;;18.48;12.70;;;12.10;54.80;;;;;;5043572;28;20033;-70
2022/03/13 02:36:36;;;;;;;19.15;12.00;;;12.00;54.80;;;;;;5034535;28;20400;-70
2022/03/13 02:39:07;;;;;;;18.40;12.38;;;12.00;54.80;;;;;;5043084;28;20034;-70
2022/03/13 02:41:34;;;;;;;19.10;12.70;;;12.00;54.80;;;;;;5045547;28;20369;-70
2022/03/13 02:44:00;;;;;;;21.15;12.38;;;12.00;54.80;;;;;;5034071;28;20026;-70
2022/03/13 02:46:45;;;;;;;21.42;13.75;;;12.00;54.90;;;;;;5036501;28;20044;-70
2022/03/13 02:49:12;;;;;;;20.88;13.40;;;12.00;54.90;;;;;;5035087;28;20108;-70
2022/03/13 02:51:38;;;;;;;19.63;13.35;;;12.00;55.00;;;;;;5051133;28;20395;-70
2022/03/13 02:54:04;;;;;;;20.48;13.27;;;11.90;54.90;;;;;;5040736;28;20108;-70
2022/03/13 02:56:29;;;;;;;21.55;12.90;;;11.90;55.00;;;;;;5045033;28;20033;-70
2022/03/13 02:58:55;;;;;;;17.63;11.85;;;11.90;55.10;;;;;;5047363;28;20044;-70
2022/03/13 03:01:21;;;;;;;17.55;12.23;;;11.90;55.10;;;;;;5043000;28;20044;-70
2022/03/13 03:03:48;;;;;;;18.65;12.55;;;11.90;55.20;;;;;;5040500;28;20489;-70
2022/03/13 03:06:13;;;;;;;19.92;13.00;;;11.80;55.10;;;;;;5053121;28;20021;-70
2022/03/13 03:08:39;;;;;;;19.17;12.98;;;11.80;55.20;;;;;;5040087;28;20454;-70
2022/03/13 03:11:05;;;;;;;19.95;14.10;;;11.80;55.20;;;;;;5054130;28;20029;-70
2022/03/13 03:13:31;;;;;;;21.75;13.27;;;11.80;55.20;;;;;;5053603;28;20129;-70
2022/03/13 03:15:56;;;;;;;18.80;12.52;;;11.70;55.10;;;;;;5036265;28;20040;-70
2022/03/13 03:18:25;;;;;;;17.95;13.30;;;11.70;55.20;;;;;;5049383;28;20040;-70
2022/03/13 03:20:51;;;;;;;18.33;12.88;;;11.70;55.10;;;;;;5045637;28;20024;-70
2022/03/13 03:23:19;;;;;;;17.38;12.52;;;11.70;55.20;;;;;;5054324;28;20358;-70
2022/03/13 03:25:45;;;;;;;28.08;13.98;;;11.70;55.10;;;;;;5038438;28;20029;-70
2022/03/13 03:28:15;;;;;;;20.15;13.55;;;11.70;55.10;;;;;;5037560;28;20034;-70
2022/03/13 03:30:41;;;;;;;18.13;12.65;;;11.70;55.00;;;;;;5038085;28;20046;-70
2022/03/13 03:33:07;;;;;;;18.85;12.43;;;11.70;55.00;;;;;;5037184;28;20056;-70
2022/03/13 03:35:34;;;;;;;18.33;12.43;;;11.70;55.00;;;;;;5046840;28;20529;-70
2022/03/13 03:38:00;;;;;;;18.25;13.25;;;11.70;55.10;;;;;;5036083;28;20086;-70
2022/03/13 03:40:29;;;;;;;20.05;13.77;;;11.70;55.10;;;;;;5036942;28;20442;-70
2022/03/13 03:43:00;;;;;;;18.65;12.45;;;11.60;55.00;;;;;;5037294;28;20045;-70
2022/03/13 03:45:26;;;;;;;19.38;12.70;;;11.70;55.10;;;;;;5042305;28;20055;-70
2022/03/13 03:47:52;;;;;;;20.00;13.07;;;11.60;55.10;;;;;;5035411;28;20362;-70
2022/03/13 03:50:18;;;;;;;20.80;13.85;;;11.60;55.10;;;;;;5038749;28;20029;-70
2022/03/13 03:52:47;;;;;;;17.33;12.38;;;11.70;55.10;;;;;;5040808;28;20034;-70
2022/03/13 03:55:14;;;;;;;21.70;13.93;;;11.60;55.00;;;;;;5046722;28;20032;-70
2022/03/13 03:57:40;;;;;;;19.85;12.15;;;11.60;55.00;;;;;;5038089;28;20028;-70
2022/03/13 04:00:08;;;;;;;20.45;13.00;;;11.60;55.00;;;;;;5044581;28;20028;-70
2022/03/13 04:02:39;;;;;;;21.00;13.35;;;11.60;55.00;;;;;;5040467;28;20108;-70
2022/03/13 04:05:05;;;;;;;18.35;12.77;;;11.60;55.00;;;;;;5043830;28;20573;-70
2022/03/13 04:07:31;;;;;;;19.25;12.65;;;11.60;55.00;;;;;;5039462;28;20111;-70
2022/03/13 04:09:58;;;;;;;18.90;13.00;;;11.60;55.00;;;;;;5042252;28;20121;-70
2022/03/13 04:12:25;;;;;;;17.60;11.98;;;11.60;54.90;;;;;;5048388;28;20386;-70
2022/03/13 04:14:52;;;;;;;18.42;13.02;;;11.60;54.80;;;;;;5050946;28;20074;-70
2022/03/13 04:17:17;;;;;;;18.15;13.07;;;11.60;54.80;;;;;;5041068;28;20433;-70
2022/03/13 04:19:43;;;;;;;18.67;12.82;;;11.60;54.70;;;;;;5051686;28;20077;-70
2022/03/13 04:22:09;;;;;;;18.55;12.02;;;11.60;54.60;;;;;;5050104;28;20032;-70
2022/03/13 04:24:34;;;;;;;17.75;12.15;;;11.60;54.60;;;;;;5040737;28;20152;-70
2022/03/13 04:27:00;;;;;;;16.63;11.27;;;11.60;54.60;;;;;;5045011;28;20115;-70
2022/03/13 04:29:26;;;;;;;17.23;11.80;;;11.60;54.50;;;;;;5034843;28;20052;-70
2022/03/13 04:31:54;;;;;;;17.08;11.48;;;11.60;54.40;;;;;;5036363;28;20110;-70
2022/03/13 04:34:20;;;;;;;19.77;12.63;;;11.60;54.30;;;;;;5040290;28;20037;-70
2022/03/13 04:36:46;;;;;;;17.20;12.20;;;11.60;54.20;;;;;;5038064;28;20332;-70
2022/03/13 04:39:12;;;;;;;19.60;12.82;;;11.60;54.10;;;;;;5034430;28;20033;-70
2022/03/13 04:41:38;;;;;;;17.02;12.60;;;11.60;54.10;;;;;;5049840;28;20032;-70
2022/03/13 04:44:06;;;;;;;16.85;11.00;;;11.60;54.00;;;;;;5049724;28;20021;-70
2022/03/13 04:46:32;;;;;;;18.30;11.63;;;11.60;53.80;;;;;;5047750;28;20103;-70
2022/03/13 04:48:58;;;;;;;18.77;11.05;;;11.60;53.70;;;;;;5034392;28;20120;-70
2022/03/13 04:51:24;;;;;;;20.23;12.27;;;11.60;53.60;;;;;;5046142;28;20112;-70
2022/03/13 04:53:50;;;;;;;16.00;11.30;;;11.60;53.50;;;;;;5050808;28;20471;-70
2022/03/13 04:56:16;;;;;;;16.77;11.48;;;11.60;53.40;;;;;;5046821;28;20032;-70
2022/03/13 04:58:42;;;;;;;18.92;11.93;;;11.60;53.20;;;;;;5027839;28;20446;-70
2022/03/13 05:01:07;;;;;;;18.13;11.73;;;11.50;53.00;;;;;;5042526;28;20037;-70
2022/03/13 05:03:33;;;;;;;17.00;10.95;;;11.50;52.90;;;;;;5042972;28;20351;-70
2022/03/13 05:06:06;;;;;;;17.35;11.18;;;11.50;52.70;;;;;;5018659;28;20346;-70
2022/03/13 05:08:33;;;;;;;18.25;11.05;;;11.50;52.50;;;;;;5037170;28;20327;-70
2022/03/13 05:11:04;;;;;;;15.32;10.32;;;11.50;52.30;;;;;;5038762;28;20068;-70
2022/03/13 05:13:29;;;;;;;16.83;10.77;;;11.60;52.20;;;;;;5049148;28;20025;-70
2022/03/13 05:15:55;;;;;;;17.48;10.57;;;11.50;52.00;;;;;;5047851;28;20094;-70
2022/03/13 05:18:20;;;;;;;16.95;10.68;;;11.50;51.90;;;;;;5034716;28;20126;-70
2022/03/13 05:20:46;;;;;;;16.10;9.75;;;11.50;51.70;;;;;;5047793;28;20040;-70
2022/03/13 05:23:12;;;;;;;15.82;10.43;;;11.50;51.50;;;;;;5035460;28;20296;-70
2022/03/13 05:25:38;;;;;;;16.55;10.57;;;11.40;51.30;;;;;;5042486;28;20048;-70
2022/03/13 05:28:05;;;;;;;15.70;10.57;;;11.50;51.20;;;;;;5049541;28;20098;-70
2022/03/13 05:30:31;;;;;;;16.73;11.73;;;11.50;51.20;;;;;;5023439;28;20040;-70
2022/03/13 05:32:57;;;;;;;16.27;10.63;;;11.40;51.00;;;;;;5042458;28;20032;-70
2022/03/13 05:35:24;;;;;;;16.58;10.65;;;11.40;50.90;;;;;;5039846;28;20079;-70
2022/03/13 05:37:50;;;;;;;15.35;10.35;;;11.50;50.80;;;;;;5041455;28;20079;-70
2022/03/13 05:40:17;;;;;;;15.85;10.20;;;11.50;50.70;;;;;;5051860;28;20025;-69
2022/03/13 05:42:46;;;;;;;15.15;10.10;;;11.40;50.50;;;;;;5037201;28;20056;-70
2022/03/13 05:45:15;;;;;;;14.75;9.93;;;11.50;50.40;;;;;;5047049;28;20037;-70
2022/03/13 05:47:49;;;;;;;16.92;11.00;;;11.40;50.20;;;;;;5041881;28;20125;-70
2022/03/13 05:50:16;;;;;;;13.55;9.77;;;11.40;50.00;;;;;;5044751;28;20466;-70
2022/03/13 05:52:44;;;;;;;16.48;10.40;;;11.40;50.00;;;;;;5041183;28;20116;-70
2022/03/13 05:55:10;;;;;;;17.13;10.05;;;11.40;49.90;;;;;;5040611;28;20063;-70
2022/03/13 05:57:37;;;;;;;15.55;9.13;;;11.40;49.80;;;;;;5039485;28;20065;-70
2022/03/13 06:00:08;;;;;;;14.60;10.70;;;11.40;49.70;;;;;;5040988;28;20026;-70
2022/03/13 06:02:41;;;;;;;14.65;9.15;;;11.40;49.50;;;;;;5043977;28;20038;-71
2022/03/13 06:05:08;;;;;;;15.13;9.10;;;11.40;49.50;;;;;;5035454;28;20132;-70
2022/03/13 06:07:34;;;;;;;14.07;9.30;;;11.40;49.30;;;;;;5042185;28;20458;-69
2022/03/13 06:10:03;;;;;;;16.08;10.30;;;11.40;49.20;;;;;;5044795;28;20033;-69
2022/03/13 06:12:30;;;;;;;16.38;9.13;;;11.40;49.10;;;;;;5053005;28;20029;-70
2022/03/13 06:14:57;;;;;;;15.20;9.23;;;11.40;49.00;;;;;;5051356;28;20025;-70
2022/03/13 06:17:23;;;;;;;14.90;10.32;;;11.40;48.90;;;;;;5050188;28;20295;-70
2022/03/13 06:19:50;;;;;;;14.52;9.43;;;11.40;48.80;;;;;;5044361;28;20029;-70
2022/03/13 06:22:19;;;;;;;15.32;8.90;;;11.40;48.80;;;;;;5038677;28;20029;-70
2022/03/13 06:24:45;;;;;;;16.63;10.20;;;11.40;48.70;;;;;;5038926;28;20033;-70
2022/03/13 06:27:14;;;;;;;14.88;10.02;;;11.30;48.50;;;;;;5045867;28;20082;-70
2022/03/13 06:29:41;;;;;;;14.05;9.70;;;11.30;48.50;;;;;;5029560;28;20485;-70
2022/03/13 06:32:07;;;;;;;14.45;9.40;;;11.30;48.40;;;;;;5055900;28;20487;-70
2022/03/13 06:34:34;;;;;;;15.38;9.90;;;11.30;48.20;;;;;;5056836;28;20056;-70
2022/03/13 06:37:00;;;;;;;14.25;9.75;;;11.30;48.10;;;;;;5055625;28;20456;-70
2022/03/13 06:39:26;;;;;;;15.43;9.82;;;11.30;48.10;;;;;;5042153;28;20124;-70
2022/03/13 06:41:52;;;;;;;14.75;10.05;;;11.30;48.00;;;;;;5055919;28;20021;-68
2022/03/13 06:44:18;;;;;;;12.65;8.10;;;11.30;48.00;;;;;;5024940;28;20128;-70
2022/03/13 06:46:44;;;;;;;14.75;9.00;;;11.40;48.60;;;;;;5052496;28;20030;-69
2022/03/13 06:49:10;;;;;;;13.63;8.05;;;11.40;47.90;;;;;;5043923;28;20029;-69
2022/03/13 06:51:38;;;;;;;16.75;8.38;;;11.50;47.90;;;;;;5042993;28;20060;-70
2022/03/13 06:54:08;;;;;;;14.82;9.10;;;11.50;47.70;;;;;;5054030;28;20052;-72
2022/03/13 06:56:34;;;;;;;16.75;9.80;;;11.60;47.60;;;;;;5051544;28;20052;-71
2022/03/13 06:59:03;;;;;;;17.25;9.27;;;11.60;47.50;;;;;;5047436;28;20266;-71
2022/03/13 07:01:36;;;;;;;14.90;9.10;;;11.60;47.20;;;;;;5053956;28;20037;-70
2022/03/13 07:04:02;;;;;;;15.70;9.18;;;11.60;47.00;;;;;;5038010;28;20116;-70
2022/03/13 07:06:27;;;;;;;14.68;9.50;;;11.60;47.00;;;;;;5028257;28;20087;-70
2022/03/13 07:08:53;;;;;;;14.65;8.90;;;11.60;46.90;;;;;;5037969;28;20026;-70
2022/03/13 07:11:19;;;;;;;15.57;8.95;;;11.60;46.80;;;;;;5049023;28;20068;-70
2022/03/13 07:13:45;;;;;;;14.88;9.07;;;11.60;46.70;;;;;;5051224;28;20021;-71
2022/03/13 07:16:12;;;;;;;15.65;9.07;;;11.50;46.50;;;;;;5048623;28;20043;-71
2022/03/13 07:18:38;;;;;;;14.23;9.10;;;11.50;46.50;;;;;;5041319;28;20040;-71
2022/03/13 07:21:04;;;;;;;14.65;10.10;;;11.60;46.50;;;;;;5038159;28;20017;-70
2022/03/13 07:23:29;;;;;;;16.50;10.07;;;11.50;46.30;;;;;;5049219;28;20092;-70
2022/03/13 07:25:55;;;;;;;14.02;9.55;;;11.50;46.30;;;;;;5039827;28;20376;-71
2022/03/13 07:28:21;;;;;;;14.98;9.02;;;11.50;46.20;;;;;;5041154;28;20108;-70
2022/03/13 07:30:48;;;;;;;14.10;9.15;;;11.50;46.20;;;;;;5040181;28;20442;-71
2022/03/13 07:33:14;;;;;;;16.38;9.10;;;11.50;46.00;;;;;;5038718;28;20119;-71
2022/03/13 07:35:40;;;;;;;13.80;8.93;;;11.50;46.00;;;;;;5048528;28;20032;-70
2022/03/13 07:38:06;;;;;;;14.63;8.80;;;11.50;45.90;;;;;;5041333;28;20034;-70
2022/03/13 07:40:32;;;;;;;15.48;9.95;;;11.60;45.90;;;;;;5036148;28;20037;-72
2022/03/13 07:43:02;;;;;;;14.82;8.25;;;11.60;45.80;;;;;;5037543;28;20018;-71
2022/03/13 07:45:28;;;;;;;13.98;8.65;;;11.60;45.70;;;;;;5036807;28;20044;-69
2022/03/13 07:47:57;;;;;;;14.95;8.75;;;11.60;45.60;;;;;;5038125;28;20033;-70
2022/03/13 07:50:24;;;;;;;13.93;8.65;;;11.60;45.40;;;;;;5018658;28;20040;-70
2022/03/13 07:52:50;;;;;;;13.45;8.82;;;11.60;45.30;;;;;;5021267;28;20033;-70
2022/03/13 07:55:16;;;;;;;14.13;8.65;;;11.60;45.20;;;;;;5036222;28;20108;-70
2022/03/13 07:57:42;;;;;;;14.02;8.68;;;11.60;45.10;;;;;;5038401;28;20030;-71
2022/03/13 08:00:10;;;;;;;15.27;8.82;;;11.60;45.00;;;;;;5043931;28;20025;-70
2022/03/13 08:02:44;;;;;;;17.08;8.90;;;11.70;44.90;;;;;;5040203;28;20500;-71
2022/03/13 08:05:10;;;;;;;14.13;9.35;;;11.70;44.80;;;;;;5045705;28;20119;-71
2022/03/13 08:07:36;;;;;;;14.48;8.63;;;11.70;44.70;;;;;;5034823;28;20052;-71
2022/03/13 08:10:02;;;;;;;15.95;9.02;;;11.80;44.50;;;;;;5034365;28;20029;-71
2022/03/13 08:12:28;;;;;;;14.73;8.55;;;11.80;44.40;;;;;;5034904;28;20096;-70
2022/03/13 08:14:54;;;;;;;12.93;8.15;;;11.90;44.20;;;;;;5035314;28;20112;-70
2022/03/13 08:17:19;;;;;;;13.55;8.60;;;11.90;44.00;;;;;;5021312;28;20060;-71
2022/03/13 08:19:45;;;;;;;14.25;8.75;;;11.90;43.90;;;;;;5033640;28;20053;-71
2022/03/13 08:22:11;;;;;;;14.07;8.77;;;12.00;43.80;;;;;;5034670;28;20022;-72
2022/03/13 08:24:37;;;;;;;13.60;8.52;;;12.00;43.70;;;;;;5036176;28;20497;-72
2022/03/13 08:27:02;;;;;;;13.32;8.60;;;12.00;43.60;;;;;;5037395;28;20033;-71
2022/03/13 08:29:28;;;;;;;15.85;8.98;;;12.00;43.60;;;;;;5034116;28;20095;-71
2022/03/13 08:31:54;;;;;;;12.90;8.13;;;12.00;43.50;;;;;;5017360;28;20033;-71
2022/03/13 08:34:20;;;;;;;12.80;8.55;;;12.00;43.50;;;;;;5040499;28;20030;-72
2022/03/13 08:36:47;;;;;;;16.00;8.45;;;12.00;43.40;;;;;;5025689;28;20140;-71
2022/03/13 08:39:13;;;;;;;13.48;8.07;;;12.00;43.40;;;;;;5042603;28;20051;-71
2022/03/13 08:41:38;;;;;;;14.60;9.23;;;12.00;43.30;;;;;;5042346;28;20357;-71
2022/03/13 08:44:05;;;;;;;12.20;8.13;;;12.00;43.30;;;;;;5025935;28;20032;-69
2022/03/13 08:46:31;;;;;;;14.13;7.95;;;12.10;43.30;;;;;;5045462;28;20022;-70
2022/03/13 08:48:57;;;;;;;14.73;8.65;;;12.10;43.20;;;;;;5033989;28;20029;-70
2022/03/13 08:51:23;;;;;;;14.43;8.25;;;12.10;43.10;;;;;;5041159;28;20037;-70
2022/03/13 08:53:50;;;;;;;13.40;8.40;;;12.10;43.00;;;;;;5040693;28;20098;-70
2022/03/13 08:56:16;;;;;;;14.30;8.43;;;12.10;43.00;;;;;;5036278;28;20033;-70
2022/03/13 08:58:42;;;;;;;13.63;8.07;;;12.10;43.00;;;;;;5043771;28;20036;-71
2022/03/13 09:01:09;;;;;;;13.48;7.75;;;12.10;42.90;;;;;;5054490;28;20124;-70
2022/03/13 09:03:35;;;;;;;13.63;8.57;;;12.10;42.90;;;;;;5037040;28;20029;-71
2022/03/13 09:06:00;;;;;;;14.90;8.63;;;12.10;42.90;;;;;;5048204;28;20036;-70
2022/03/13 09:08:26;;;;;;;14.10;8.93;;;12.10;42.80;;;;;;5034864;28;20473;-71
2022/03/13 09:10:52;;;;;;;14.40;8.43;;;12.10;42.70;;;;;;5035365;28;20065;-70
2022/03/13 09:13:20;;;;;;;14.52;8.70;;;12.20;42.70;;;;;;5037966;28;20053;-70
2022/03/13 09:15:50;;;;;;;13.25;8.07;;;12.20;42.50;;;;;;5055341;28;20044;-70
2022/03/13 09:18:15;;;;;;;13.95;8.13;;;12.30;42.50;;;;;;5049846;28;20397;-71
2022/03/13 09:20:41;;;;;;;12.73;8.43;;;12.30;42.30;;;;;;5053391;28;20032;-70
2022/03/13 09:23:07;;;;;;;14.75;8.45;;;12.30;42.20;;;;;;5035133;28;20021;-70
2022/03/13 09:25:34;;;;;;;13.85;8.73;;;12.40;42.10;;;;;;5039880;28;20022;-70
2022/03/13 09:28:00;;;;;;;13.05;7.78;;;12.40;42.00;;;;;;5037821;28;20126;-70
2022/03/13 09:30:27;;;;;;;13.85;8.27;;;12.50;41.90;;;;;;5052954;28;20037;-70
2022/03/13 09:32:53;;;;;;;17.25;8.85;;;12.50;41.80;;;;;;5055084;28;20024;-70
2022/03/13 09:35:19;;;;;;;13.55;7.95;;;12.60;41.60;;;;;;5053508;28;20098;-71
2022/03/13 09:37:44;;;;;;;13.32;8.50;;;12.80;41.50;;;;;;5039706;28;20029;-70
2022/03/13 09:40:11;;;;;;;14.65;7.30;;;12.90;41.80;;;;;;5036366;28;20421;-70
2022/03/13 09:42:37;;;;;;;12.95;8.13;;;13.20;40.90;;;;;;5046879;28;20380;-71
2022/03/13 09:45:04;;;;;;;13.73;8.73;;;13.70;40.40;;;;;;5049108;28;20399;-71
2022/03/13 09:47:30;;;;;;;13.50;8.00;;;14.30;39.80;;;;;;5054709;28;20035;-71
2022/03/13 09:49:55;;;;;;;14.57;8.27;;;14.70;39.40;;;;;;5042961;28;20037;-71
2022/03/13 09:52:21;;;;;;;12.90;8.10;;;15.00;38.90;;;;;;5034062;28;20527;-71
2022/03/13 09:54:47;;;;;;;13.50;7.50;;;15.30;38.60;;;;;;5050126;28;20033;-71
2022/03/13 09:57:14;;;;;;;12.82;8.13;;;15.60;38.40;;;;;;5053525;28;20025;-71
2022/03/13 09:59:43;;;;;;;13.15;7.97;;;15.70;38.00;;;;;;5040567;28;20025;-71
2022/03/13 10:02:09;;;;;;;13.75;8.05;;;15.80;37.90;;;;;;5050435;28;20356;-71
2022/03/13 10:04:35;;;;;;;14.25;8.75;;;15.90;37.80;;;;;;5035783;28;20036;-72
2022/03/13 10:07:06;;;;;;;13.52;8.00;;;16.10;37.70;;;;;;5039477;28;20029;-71
2022/03/13 10:09:33;;;;;;;13.63;7.95;;;16.20;37.40;;;;;;5036674;28;20417;-71
2022/03/13 10:12:06;;;;;;;12.40;7.63;;;16.40;37.40;;;;;;5033762;28;20066;-71
2022/03/13 10:14:32;;;;;;;16.05;8.32;;;16.30;37.10;;;;;;5033868;28;20112;-69
2022/03/13 10:16:57;;;;;;;14.20;8.43;;;16.30;37.40;;;;;;5053042;28;20112;-70
2022/03/13 10:19:27;;;;;;;13.27;8.40;;;16.30;37.50;;;;;;5036607;28;20525;-70
2022/03/13 10:22:27;;;;;;;13.45;8.60;;;16.30;37.50;;;;;;5036556;28;20025;-70
2022/03/13 10:24:52;;;;;;;14.07;8.18;;;16.20;37.40;;;;;;5039339;28;20412;-70
2022/03/13 10:27:20;;;;;;;14.00;8.25;;;16.10;37.80;;;;;;5054622;28;20116;-71
2022/03/13 10:29:48;;;;;;;13.38;8.25;;;16.00;37.90;;;;;;5053757;28;20075;-70
2022/03/13 10:32:14;;;;;;;13.48;8.30;;;15.90;38.10;;;;;;5036908;28;20124;-71
2022/03/13 10:34:40;;;;;;;18.40;10.50;;;16.00;38.20;;;;;;5050357;28;20102;-70
2022/03/13 10:37:06;;;;;;;15.93;9.68;;;16.10;38.10;;;;;;5046630;28;20056;-70
2022/03/13 10:39:34;;;;;;;18.58;8.98;;;16.30;37.90;;;;;;5034654;28;20069;-70
2022/03/13 10:42:02;;;;;;;14.32;9.05;;;16.50;37.80;;;;;;5035659;28;20025;-71
2022/03/13 10:44:35;;;;;;;13.68;8.40;;;16.70;37.80;;;;;;5033320;28;20033;-71
2022/03/13 10:47:08;;;;;;;14.32;8.98;;;16.90;37.70;;;;;;5044730;28;20446;-70
2022/03/13 10:49:45;;;;;;;19.00;10.43;;;17.10;37.80;;;;;;5047083;28;20028;-70
2022/03/13 10:52:23;;;;;;;16.42;8.60;;;17.30;37.60;;;;;;5043574;28;20116;-70
2022/03/13 10:54:49;;;;;;;14.43;8.70;;;17.40;37.60;;;;;;5049050;28;20122;-71
2022/03/13 10:57:15;;;;;;;16.27;8.95;;;17.40;37.70;;;;;;5040315;28;20107;-71
2022/03/13 10:59:41;;;;;;;16.13;8.93;;;17.40;37.80;;;;;;5019322;28;20083;-71
2022/03/13 11:02:14;;;;;;;14.85;8.88;;;17.30;38.00;;;;;;5037519;28;20022;-69
2022/03/13 11:04:50;;;;;;;14.35;9.07;;;17.40;38.20;;;;;;5037331;28;20025;-69
2022/03/13 11:07:17;;;;;;;16.58;9.75;;;17.50;38.90;;;;;;5025026;28;20102;-69
2022/03/13 11:09:43;;;;;;;15.05;9.40;;;17.60;38.20;;;;;;5056443;28;20416;-69
2022/03/13 11:12:15;;;;;;;15.15;9.32;;;17.70;38.10;;;;;;5054086;28;20037;-69
2022/03/13 11:14:43;;;;;;;14.98;8.88;;;17.80;37.90;;;;;;5037541;28;20037;-69
2022/03/13 11:17:11;;;;;;;16.00;9.18;;;17.80;38.00;;;;;;5029973;28;20026;-69
2022/03/13 11:19:39;;;;;;;13.43;9.15;;;17.80;38.00;;;;;;5049897;28;20034;-69
2022/03/13 11:22:09;;;;;;;16.50;9.63;;;18.00;37.90;;;;;;5045316;28;20047;-70
2022/03/13 11:24:36;;;;;;;13.98;8.70;;;18.00;37.80;;;;;;5041574;28;20411;-70
2022/03/13 11:27:08;;;;;;;14.05;8.90;;;18.10;37.90;;;;;;5036433;28;20087;-70
2022/03/13 11:29:53;;;;;;;13.88;8.52;;;18.20;37.90;;;;;;5037350;28;20115;-70
2022/03/13 11:32:31;;;;;;;13.55;8.45;;;18.20;37.90;;;;;;5049590;28;20452;-70
2022/03/13 11:35:15;;;;;;;13.30;8.95;;;18.30;37.90;;;;;;5044630;28;20045;-70
2022/03/13 11:37:43;;;;;;;14.38;8.35;;;18.30;38.00;;;;;;5038121;28;20045;-70
2022/03/13 11:40:11;;;;;;;13.00;8.73;;;18.30;37.90;;;;;;5043001;28;20017;-70
2022/03/13 11:42:47;;;;;;;14.65;9.75;;;18.30;37.90;;;;;;5048189;28;20060;-71
2022/03/13 11:45:27;;;;;;;14.88;9.00;;;18.20;37.80;;;;;;5042935;28;20032;-69
2022/03/13 11:47:53;;;;;;;14.48;8.85;;;18.20;38.00;;;;;;5042203;28;20151;-69
2022/03/13 11:50:19;;;;;;;15.07;9.40;;;18.10;38.10;;;;;;5036739;28;20065;-69
2022/03/13 11:52:45;;;;;;;13.95;8.60;;;18.20;38.20;;;;;;5042967;28;20356;-71
2022/03/13 11:55:12;;;;;;;13.60;8.23;;;18.20;38.20;;;;;;5042516;28;20045;-72
2022/03/13 11:57:50;;;;;;;13.27;8.13;;;18.30;38.20;;;;;;5037882;28;20026;-72
2022/03/13 12:00:16;;;;;;;13.63;8.25;;;18.40;38.10;;;;;;5055344;28;20033;-72
2022/03/13 12:02:48;;;;;;;12.50;8.40;;;18.40;38.10;;;;;;5057004;28;20036;-72
2022/03/13 12:05:25;;;;;;;13.30;8.32;;;18.40;38.20;;;;;;5054959;28;20040;-72
2022/03/13 12:08:05;;;;;;;12.82;7.32;;;18.40;38.20;;;;;;5029900;28;20415;-71
2022/03/13 12:10:35;;;;;;;13.68;7.80;;;18.50;38.30;;;;;;5036442;28;20029;-73
2022/03/13 12:13:04;;;;;;;12.45;7.80;;;18.50;38.30;;;;;;5038167;28;20033;-73
2022/03/13 12:15:30;;;;;;;12.63;7.22;;;18.50;38.30;;;;;;5053515;28;20040;-73
2022/03/13 12:17:57;;;;;;;13.57;7.90;;;18.50;38.40;;;;;;5042656;28;20026;-73
2022/03/13 12:20:25;;;;;;;11.05;6.88;;;18.50;38.30;;;;;;5023119;28;20338;-73
2022/03/13 12:22:56;;;;;;;12.60;7.70;;;18.50;38.40;;;;;;5022888;28;20041;-73
2022/03/13 12:25:30;;;;;;;12.57;7.78;;;18.40;38.40;;;;;;5043595;28;20033;-73
2022/03/13 12:27:56;;;;;;;13.48;8.13;;;18.40;38.50;;;;;;5036741;28;20053;-74
2022/03/13 12:30:27;;;;;;;12.65;7.47;;;18.30;38.70;;;;;;5035648;28;20052;-73
2022/03/13 12:33:04;;;;;;;12.30;7.72;;;18.30;38.70;;;;;;5037771;28;20068;-73
2022/03/13 12:35:31;;;;;;;13.65;7.75;;;18.30;39.40;;;;;;5028020;28;20107;-74